Rochelle, Georgia
Current Conditions -  °F | °C
As of 1:55 PM on Monday 20 Oct 2014 (Local Time) from KCKF Reporting Station
Broken Clouds Broken Clouds  
Wind Chill: 24°   Ceiling: 4300
Heat Index: 24°   Visibility: 10mi
Dew Point: 12°   Wind: 0mph
Humidity: 46%   Direction: NA
Pressure: 30.05"   Gusts: NA
Location:  31.95°N, 83.46°W
Report Text: KCKF 201755Z AUTO 00000KT 10SM BKN043 24/12 A3005 RMK AO2 T02440121 10248 20089
Loading
Personal Weather Stations






























Interactive Weather Map
Tropical Storm Tracking
New forecast layout! Learn more

10-Day Weather Forecast

Advertisements
Track Severe Weather on mobile